createdAt,value
2023-08-29T00:00:25.730Z,3.67
2023-08-29T00:02:54.285Z,3.60
2023-08-29T00:05:22.127Z,3.95
2023-08-29T00:07:49.865Z,3.53
2023-08-29T00:10:17.567Z,3.38
2023-08-29T00:12:45.373Z,3.85
2023-08-29T00:15:13.116Z,2.83
2023-08-29T00:17:40.958Z,3.53
2023-08-29T00:20:09.130Z,3.53
2023-08-29T00:22:36.983Z,3.60
2023-08-29T00:25:04.911Z,3.35
2023-08-29T00:27:32.654Z,3.78
2023-08-29T00:30:00.379Z,3.95
2023-08-29T00:32:29.514Z,3.50
2023-08-29T00:34:57.252Z,3.38
2023-08-29T00:37:24.982Z,3.60
2023-08-29T00:39:52.710Z,3.58
2023-08-29T00:42:20.431Z,3.60
2023-08-29T00:44:48.168Z,3.72
2023-08-29T00:47:16.001Z,3.42
2023-08-29T00:49:44.619Z,3.20
2023-08-29T00:52:12.354Z,3.20
2023-08-29T00:54:40.099Z,3.40
2023-08-29T00:57:08.036Z,3.13
2023-08-29T00:59:36.414Z,3.50
2023-08-29T01:02:05.184Z,3.72
2023-08-29T01:04:33.021Z,3.70
2023-08-29T01:07:00.888Z,3.60
2023-08-29T01:09:28.646Z,3.70
2023-08-29T01:11:59.917Z,3.63
2023-08-29T01:15:02.878Z,3.33
2023-08-29T01:17:35.718Z,3.58
2023-08-29T01:20:06.671Z,3.75
2023-08-29T01:23:04.129Z,3.70
2023-08-29T01:26:04.742Z,3.33
2023-08-29T01:28:33.127Z,3.30
2023-08-29T01:31:04.927Z,3.60
2023-08-29T01:33:33.015Z,3.20
2023-08-29T01:36:01.314Z,3.97
2023-08-29T01:38:29.081Z,3.70
2023-08-29T01:40:57.166Z,4.10
2023-08-29T01:43:25.544Z,3.58
2023-08-29T01:45:53.653Z,3.50
2023-08-29T01:48:23.897Z,3.58
2023-08-29T01:50:51.892Z,3.90
2023-08-29T01:53:20.031Z,3.90
2023-08-29T01:55:49.467Z,3.70
2023-08-29T01:58:18.035Z,3.67
2023-08-29T02:00:45.943Z,4.10
2023-08-29T02:03:13.671Z,3.90
2023-08-29T02:05:42.823Z,3.80
2023-08-29T02:08:10.579Z,3.70
2023-08-29T02:10:38.310Z,3.95
2023-08-29T02:13:06.004Z,3.63
2023-08-29T02:15:33.728Z,3.40
2023-08-29T02:18:01.544Z,3.63
2023-08-29T02:20:30.450Z,3.40
2023-08-29T02:22:58.556Z,3.92
2023-08-29T02:25:26.283Z,3.80
2023-08-29T02:27:55.935Z,3.72
2023-08-29T02:30:27.689Z,3.65
2023-08-29T02:32:56.569Z,4.10
2023-08-29T02:35:24.299Z,3.67
2023-08-29T02:37:52.237Z,3.65
2023-08-29T02:40:20.819Z,3.65
2023-08-29T02:42:48.923Z,3.83
2023-08-29T02:45:16.693Z,3.40
2023-08-29T02:47:44.429Z,3.90
2023-08-29T02:50:12.201Z,3.67
2023-08-29T02:52:39.959Z,3.80
2023-08-29T02:55:08.185Z,4.00
2023-08-29T02:57:38.586Z,3.47
2023-08-29T03:00:08.209Z,4.18
2023-08-29T03:02:36.025Z,3.50
2023-08-29T03:05:04.145Z,3.90
2023-08-29T03:07:32.155Z,3.35
2023-08-29T03:09:59.978Z,3.75
2023-08-29T03:12:27.870Z,3.88
2023-08-29T03:14:57.449Z,3.70
2023-08-29T03:17:27.098Z,4.03
2023-08-29T03:19:55.039Z,3.80
2023-08-29T03:22:22.804Z,3.20
2023-08-29T03:24:50.944Z,3.70
2023-08-29T03:27:18.675Z,3.20
2023-08-29T03:29:46.424Z,3.53
2023-08-29T03:32:14.318Z,3.88
2023-08-29T03:34:42.114Z,3.85
2023-08-29T03:37:09.826Z,3.53
2023-08-29T03:39:37.560Z,4.75
2023-08-29T03:42:05.549Z,4.05
2023-08-29T03:44:33.283Z,3.80
2023-08-29T03:47:00.970Z,4.35
2023-08-29T03:49:28.761Z,4.07
2023-08-29T03:51:57.166Z,3.80
2023-08-29T03:54:25.441Z,4.00
2023-08-29T03:56:54.138Z,4.25
2023-08-29T03:59:21.925Z,4.10
2023-08-29T04:01:49.738Z,4.10
2023-08-29T04:04:17.645Z,3.92
2023-08-29T04:06:46.050Z,4.03
2023-08-29T04:09:15.630Z,4.22
2023-08-29T04:11:43.396Z,3.95
2023-08-29T04:14:11.100Z,4.15
2023-08-29T04:16:38.855Z,3.97
2023-08-29T04:19:06.632Z,3.97
2023-08-29T04:21:34.368Z,4.15
2023-08-29T04:24:02.145Z,4.30
2023-08-29T04:26:30.106Z,4.80
2023-08-29T04:28:57.854Z,4.68
2023-08-29T04:31:26.558Z,4.80
2023-08-29T04:33:54.295Z,4.25
2023-08-29T04:36:22.018Z,4.28
2023-08-29T04:38:49.797Z,4.10
2023-08-29T04:41:18.066Z,3.88
2023-08-29T04:43:45.774Z,3.95
2023-08-29T04:46:13.552Z,3.55
2023-08-29T04:48:41.396Z,3.80
2023-08-29T04:51:09.164Z,4.38
2023-08-29T04:53:36.920Z,4.30
2023-08-29T04:56:05.659Z,4.53
2023-08-29T04:58:37.409Z,4.70
2023-08-29T05:01:05.738Z,5.07
2023-08-29T05:03:34.116Z,4.70
2023-08-29T05:06:01.885Z,4.70
2023-08-29T05:08:35.759Z,4.30
2023-08-29T05:11:03.927Z,3.75
2023-08-29T05:13:31.712Z,4.10
2023-08-29T05:15:59.524Z,4.15
2023-08-29T05:18:28.738Z,4.40
2023-08-29T05:20:58.634Z,3.90
2023-08-29T05:23:26.417Z,4.00
2023-08-29T05:25:54.186Z,4.00
2023-08-29T05:28:21.851Z,3.88
2023-08-29T05:30:49.622Z,4.40
2023-08-29T05:33:17.340Z,4.28
2023-08-29T05:35:45.112Z,4.15
2023-08-29T05:38:12.825Z,3.60
2023-08-29T05:40:40.562Z,4.13
2023-08-29T05:43:08.294Z,4.50
2023-08-29T05:45:36.000Z,4.40
2023-08-29T05:48:05.004Z,4.20
2023-08-29T05:50:33.105Z,4.25
2023-08-29T05:53:03.076Z,4.40
2023-08-29T05:55:30.763Z,4.80
2023-08-29T05:57:58.556Z,4.25
2023-08-29T06:00:26.751Z,3.45
2023-08-29T06:02:54.686Z,3.65
2023-08-29T06:05:22.434Z,3.80
2023-08-29T06:07:51.117Z,4.40
2023-08-29T06:10:19.887Z,3.80
2023-08-29T06:12:48.125Z,3.80
2023-08-29T06:15:15.971Z,3.50
2023-08-29T06:17:43.715Z,3.80
2023-08-29T06:20:14.541Z,3.78
2023-08-29T06:22:42.521Z,4.15
2023-08-29T06:25:11.192Z,4.80
2023-08-29T06:27:39.193Z,4.32
2023-08-29T06:30:14.088Z,4.30
2023-08-29T06:32:42.828Z,4.88
2023-08-29T06:35:11.087Z,4.78
2023-08-29T06:37:39.335Z,5.00
2023-08-29T06:40:08.285Z,4.63
2023-08-29T06:42:36.070Z,4.53
2023-08-29T06:45:04.509Z,4.90
2023-08-29T06:47:32.694Z,4.70
2023-08-29T06:50:00.927Z,4.20
2023-08-29T06:52:28.998Z,4.80
2023-08-29T06:54:56.797Z,5.05
2023-08-29T06:57:24.779Z,4.95
2023-08-29T06:59:52.486Z,4.82
2023-08-29T07:02:21.049Z,4.82
2023-08-29T07:04:48.869Z,4.53
2023-08-29T07:07:16.578Z,4.22
2023-08-29T07:09:44.997Z,5.22
2023-08-29T07:12:12.825Z,4.97
2023-08-29T07:14:40.554Z,4.53
2023-08-29T07:17:10.375Z,5.05
2023-08-29T07:19:39.853Z,4.63
2023-08-29T07:22:21.750Z,4.88
2023-08-29T07:24:51.938Z,4.72
2023-08-29T07:27:20.164Z,4.78
2023-08-29T07:29:47.944Z,4.97
2023-08-29T07:32:15.831Z,4.28
2023-08-29T07:34:43.696Z,4.93
2023-08-29T07:37:11.455Z,4.45
2023-08-29T07:39:39.163Z,5.30
2023-08-29T07:42:07.195Z,4.07
2023-08-29T07:44:35.066Z,4.30
2023-08-29T07:47:15.035Z,4.82
2023-08-29T07:49:43.990Z,4.75
2023-08-29T07:52:11.731Z,4.72
2023-08-29T07:54:40.713Z,4.60
2023-08-29T07:57:08.518Z,4.32
2023-08-29T07:59:36.195Z,4.63
2023-08-29T08:02:04.015Z,4.43
2023-08-29T08:04:31.775Z,4.30
2023-08-29T08:06:59.506Z,4.68
2023-08-29T08:09:27.826Z,3.88
2023-08-29T08:11:55.636Z,3.72
2023-08-29T08:14:23.504Z,4.55
2023-08-29T08:16:51.399Z,4.53
2023-08-29T08:19:19.293Z,4.50
2023-08-29T08:21:48.876Z,3.55
2023-08-29T08:24:18.709Z,3.72
2023-08-29T08:26:47.235Z,4.03
2023-08-29T08:29:15.046Z,3.65
2023-08-29T08:31:42.912Z,4.20
2023-08-29T08:34:11.566Z,3.50
2023-08-29T08:36:39.385Z,3.28
2023-08-29T08:39:07.541Z,3.80
2023-08-29T08:41:35.319Z,3.80
2023-08-29T08:44:09.789Z,3.65
2023-08-29T08:46:38.431Z,3.70
2023-08-29T08:49:07.939Z,3.67
2023-08-29T08:51:40.839Z,3.20
2023-08-29T08:54:09.182Z,3.30
2023-08-29T08:56:38.510Z,4.00
2023-08-29T08:59:06.970Z,3.33
2023-08-29T09:01:35.520Z,3.60
2023-08-29T09:04:04.288Z,4.13
2023-08-29T09:06:32.372Z,4.45
2023-08-29T09:09:21.058Z,4.07
2023-08-29T09:11:56.653Z,4.38
2023-08-29T09:14:26.350Z,4.00
2023-08-29T09:16:55.490Z,4.03
2023-08-29T09:19:24.111Z,4.38
2023-08-29T09:21:52.424Z,3.92
2023-08-29T09:24:36.378Z,4.13
2023-08-29T09:27:10.365Z,3.95
2023-08-29T09:29:38.368Z,3.67
2023-08-29T09:32:16.263Z,4.30
2023-08-29T09:34:44.239Z,3.63
2023-08-29T09:37:14.832Z,2.50
2023-08-29T09:39:42.714Z,3.70
2023-08-29T09:42:11.883Z,4.00
2023-08-29T09:44:41.349Z,3.80
2023-08-29T09:47:12.335Z,3.28
2023-08-29T09:49:48.611Z,3.25
2023-08-29T09:54:51.070Z,3.47
2023-08-29T09:57:20.769Z,3.40
2023-08-29T09:59:48.727Z,3.60
2023-08-29T10:02:19.673Z,3.35
2023-08-29T10:04:53.760Z,4.00
2023-08-29T10:07:27.250Z,4.05
2023-08-29T10:09:55.047Z,3.35
2023-08-29T10:12:23.194Z,3.00
2023-08-29T10:14:51.692Z,3.53
2023-08-29T10:17:30.299Z,3.50
2023-08-29T10:20:00.909Z,3.25
2023-08-29T10:22:31.266Z,3.80
2023-08-29T10:25:02.024Z,3.67
2023-08-29T10:27:30.000Z,3.50
2023-08-29T10:29:57.937Z,4.00
2023-08-29T10:32:28.008Z,3.58
2023-08-29T10:34:56.564Z,3.58
2023-08-29T10:37:25.329Z,2.97
2023-08-29T10:39:53.084Z,2.83
2023-08-29T10:42:20.791Z,3.42
2023-08-29T10:44:50.295Z,3.20
2023-08-29T10:47:29.056Z,3.67
2023-08-29T10:50:03.360Z,3.20
2023-08-29T10:52:41.553Z,3.58
2023-08-29T10:55:28.733Z,2.72
2023-08-29T10:57:59.881Z,3.05
2023-08-29T11:00:35.496Z,2.80
2023-08-29T11:03:04.325Z,2.28
2023-08-29T11:05:33.181Z,2.10
2023-08-29T11:08:22.762Z,2.00
2023-08-29T11:11:16.179Z,2.28
2023-08-29T11:13:59.556Z,1.90
2023-08-29T11:16:28.754Z,1.90
2023-08-29T11:19:00.842Z,2.38
2023-08-29T11:21:30.373Z,2.55
2023-08-29T11:24:15.034Z,2.60
2023-08-29T11:26:47.034Z,2.60
2023-08-29T11:29:15.004Z,2.80
2023-08-29T11:31:44.145Z,2.63
2023-08-29T11:34:19.057Z,2.78
2023-08-29T11:36:49.424Z,2.80
2023-08-29T11:39:20.682Z,2.85
2023-08-29T11:42:09.972Z,2.70
2023-08-29T11:44:54.576Z,2.17
2023-08-29T11:47:25.800Z,2.80
2023-08-29T11:49:53.809Z,2.80
2023-08-29T11:52:21.690Z,3.45
2023-08-29T11:54:54.981Z,3.25
2023-08-29T11:57:22.896Z,2.80
2023-08-29T11:59:54.084Z,2.60
2023-08-29T12:02:25.127Z,2.17
2023-08-29T12:04:57.312Z,2.50
2023-08-29T12:07:30.929Z,2.50
2023-08-29T12:10:11.660Z,2.20
2023-08-29T12:12:40.673Z,2.60
2023-08-29T12:15:17.853Z,3.10
2023-08-29T12:17:49.828Z,2.70
2023-08-29T12:20:18.029Z,2.50
2023-08-29T12:22:50.621Z,2.70
2023-08-29T12:25:20.380Z,2.20
2023-08-29T12:27:49.302Z,2.75
2023-08-29T12:30:17.291Z,3.17
2023-08-29T12:32:46.308Z,2.40
2023-08-29T12:35:16.661Z,2.45
2023-08-29T12:37:44.510Z,2.40
2023-08-29T12:40:13.807Z,2.08
2023-08-29T12:42:45.102Z,2.60
2023-08-29T12:45:13.044Z,2.47
2023-08-29T12:47:40.908Z,2.00
2023-08-29T12:50:09.287Z,2.10
2023-08-29T12:52:37.085Z,2.08
2023-08-29T12:55:05.666Z,1.77
2023-08-29T12:57:33.433Z,1.90
2023-08-29T13:00:01.171Z,1.67
2023-08-29T13:02:29.046Z,2.80
2023-08-29T13:04:56.883Z,2.85
2023-08-29T13:07:24.565Z,1.90
2023-08-29T13:09:53.925Z,1.50
2023-08-29T13:12:21.844Z,2.85
2023-08-29T13:14:49.559Z,2.15
2023-08-29T13:17:17.698Z,1.95
2023-08-29T13:19:45.403Z,1.98
2023-08-29T13:22:13.140Z,2.35
2023-08-29T13:24:40.938Z,2.20
2023-08-29T13:27:09.986Z,2.80
2023-08-29T13:29:38.019Z,2.08
2023-08-29T13:32:06.088Z,2.45
2023-08-29T13:34:33.858Z,2.65
2023-08-29T13:37:01.568Z,2.22
2023-08-29T13:39:29.952Z,2.38
2023-08-29T13:41:57.698Z,3.10
2023-08-29T13:44:25.395Z,2.20
2023-08-29T13:46:53.148Z,2.55
2023-08-29T13:49:20.829Z,2.75
2023-08-29T13:51:49.869Z,2.30
2023-08-29T13:54:17.644Z,2.83
2023-08-29T13:56:45.579Z,2.63
2023-08-29T13:59:13.367Z,2.25
2023-08-29T14:01:41.183Z,2.10
2023-08-29T14:04:09.100Z,2.53
2023-08-29T14:06:36.839Z,2.38
2023-08-29T14:09:04.626Z,2.33
2023-08-29T14:11:32.372Z,2.25
2023-08-29T14:14:00.196Z,2.35
2023-08-29T14:16:30.049Z,2.17
2023-08-29T14:18:57.822Z,3.03
2023-08-29T14:21:25.597Z,2.30
2023-08-29T14:23:53.326Z,2.33
2023-08-29T14:26:21.070Z,2.08
2023-08-29T14:28:48.853Z,2.10
2023-08-29T14:31:21.549Z,1.92
2023-08-29T14:33:49.290Z,2.20
2023-08-29T14:36:17.128Z,2.08
2023-08-29T14:38:44.896Z,2.63
2023-08-29T14:41:14.249Z,2.42
2023-08-29T14:43:42.486Z,2.60
2023-08-29T14:46:10.432Z,2.72
2023-08-29T14:48:39.071Z,2.85
2023-08-29T14:51:07.585Z,3.30
2023-08-29T14:53:36.407Z,2.90
2023-08-29T14:56:04.431Z,3.30
2023-08-29T14:58:33.800Z,3.60
2023-08-29T15:01:01.620Z,3.65
2023-08-29T15:03:30.077Z,4.05
2023-08-29T15:05:58.869Z,3.88
2023-08-29T15:08:27.305Z,5.00
2023-08-29T15:10:55.446Z,5.60
2023-08-29T15:13:25.933Z,5.57
2023-08-29T15:15:53.782Z,5.68
2023-08-29T15:18:21.559Z,5.88
2023-08-29T15:20:50.508Z,5.50
2023-08-29T15:23:18.227Z,4.93
2023-08-29T15:25:45.982Z,4.82
2023-08-29T15:28:13.837Z,4.85
2023-08-29T15:30:41.544Z,4.82
2023-08-29T15:33:09.313Z,4.10
2023-08-29T15:35:37.119Z,4.72
2023-08-29T15:38:05.185Z,4.90
2023-08-29T15:40:33.107Z,4.97
2023-08-29T15:43:00.842Z,4.80
2023-08-29T15:45:28.548Z,4.70
2023-08-29T15:47:57.029Z,4.43
2023-08-29T15:50:24.778Z,4.40
2023-08-29T15:52:52.539Z,4.78
2023-08-29T15:55:20.402Z,4.57
2023-08-29T15:57:48.171Z,4.82
2023-08-29T16:00:17.142Z,4.85
2023-08-29T16:02:46.032Z,4.30
2023-08-29T16:05:14.231Z,5.03
2023-08-29T16:07:44.200Z,4.07
2023-08-29T16:10:15.258Z,4.75
2023-08-29T16:12:43.956Z,3.85
2023-08-29T16:15:14.359Z,4.30
2023-08-29T16:17:43.381Z,4.68
2023-08-29T16:20:11.797Z,4.32
2023-08-29T16:22:40.262Z,5.30
2023-08-29T16:25:08.482Z,4.13
2023-08-29T16:27:36.897Z,4.57
2023-08-29T16:30:08.239Z,4.75
2023-08-29T16:32:36.494Z,4.30
2023-08-29T16:35:07.400Z,4.22
2023-08-29T16:37:38.282Z,3.90
2023-08-29T16:40:09.771Z,4.55
2023-08-29T16:42:37.854Z,4.15
2023-08-29T16:45:07.242Z,4.72
2023-08-29T16:47:35.050Z,4.30
2023-08-29T16:50:03.097Z,4.40
2023-08-29T16:52:31.042Z,4.50
2023-08-29T16:54:58.858Z,4.00
2023-08-29T16:57:26.583Z,4.40
2023-08-29T16:59:58.583Z,4.20
2023-08-29T17:02:27.271Z,4.15
2023-08-29T17:04:55.817Z,3.25
2023-08-29T17:07:24.885Z,4.10
2023-08-29T17:09:53.340Z,4.00
2023-08-29T17:12:22.601Z,3.80
2023-08-29T17:14:51.233Z,3.90
2023-08-29T17:17:19.784Z,4.30
2023-08-29T17:19:47.547Z,4.25
2023-08-29T17:22:15.435Z,3.95
2023-08-29T17:24:43.238Z,3.60
2023-08-29T17:27:11.088Z,4.32
2023-08-29T17:29:39.066Z,4.53
2023-08-29T17:32:07.607Z,4.38
2023-08-29T17:34:54.026Z,4.15
2023-08-29T17:37:42.219Z,4.50
2023-08-29T17:40:30.236Z,4.30
2023-08-29T17:43:18.272Z,4.25
2023-08-29T17:46:07.334Z,4.07
2023-08-29T17:48:55.443Z,4.25
2023-08-29T17:51:43.490Z,3.70
2023-08-29T17:54:32.070Z,3.85
2023-08-29T17:57:20.026Z,4.00
2023-08-29T18:00:08.580Z,4.43
2023-08-29T18:02:58.295Z,4.00
2023-08-29T18:05:54.055Z,4.60
2023-08-29T18:08:43.218Z,4.10
2023-08-29T18:11:31.261Z,3.70
2023-08-29T18:14:19.317Z,4.38
2023-08-29T18:17:08.437Z,4.20
2023-08-29T18:19:58.430Z,4.20
2023-08-29T18:22:46.392Z,4.10
2023-08-29T18:25:14.263Z,3.75
2023-08-29T18:27:42.108Z,3.97
2023-08-29T18:30:10.531Z,4.05
2023-08-29T18:32:38.340Z,4.05
2023-08-29T18:35:16.530Z,4.00
2023-08-29T18:37:44.346Z,3.83
2023-08-29T18:40:12.533Z,4.32
2023-08-29T18:42:40.275Z,4.32
2023-08-29T18:45:28.530Z,3.92
2023-08-29T18:48:19.497Z,4.18
2023-08-29T18:51:07.475Z,4.88
2023-08-29T18:53:55.987Z,4.57
2023-08-29T18:56:43.895Z,4.85
2023-08-29T18:59:33.234Z,3.35
2023-08-29T19:02:21.225Z,3.30
2023-08-29T19:05:10.356Z,4.07
2023-08-29T19:07:58.291Z,4.43
2023-08-29T19:10:47.682Z,4.30
2023-08-29T19:13:35.710Z,4.18
2023-08-29T19:16:25.366Z,4.07
2023-08-29T19:19:13.283Z,4.20
2023-08-29T19:22:03.905Z,3.58
2023-08-29T19:24:51.948Z,3.35
2023-08-29T19:27:39.887Z,3.36
2023-08-29T19:30:27.908Z,3.22
2023-08-29T19:33:16.010Z,3.17
2023-08-29T19:36:16.727Z,3.53
2023-08-29T19:39:16.780Z,3.80
2023-08-29T19:42:05.698Z,3.65
2023-08-29T19:44:53.792Z,3.45
2023-08-29T19:47:42.932Z,3.50
2023-08-29T19:50:30.943Z,3.53
2023-08-29T19:53:19.003Z,4.03
2023-08-29T19:56:08.068Z,3.90
2023-08-29T19:58:56.171Z,3.55
2023-08-29T20:01:44.138Z,3.65
2023-08-29T20:04:32.100Z,3.65
2023-08-29T20:07:20.229Z,3.58
2023-08-29T20:10:08.496Z,3.67
2023-08-29T20:12:56.527Z,3.67
2023-08-29T20:15:45.075Z,4.45
2023-08-29T20:18:33.069Z,3.35
2023-08-29T20:21:21.010Z,3.75
2023-08-29T20:24:09.046Z,4.07
2023-08-29T20:26:57.018Z,4.13
2023-08-29T20:29:44.972Z,4.38
2023-08-29T20:32:32.984Z,3.72
2023-08-29T20:35:21.347Z,3.47
2023-08-29T20:38:09.543Z,3.75
2023-08-29T20:40:57.713Z,3.90
2023-08-29T20:43:45.695Z,3.58
2023-08-29T20:46:33.742Z,3.40
2023-08-29T20:49:21.783Z,3.55
2023-08-29T20:52:11.935Z,3.55
2023-08-29T20:55:00.250Z,3.53
2023-08-29T20:57:48.249Z,3.63
2023-08-29T21:00:36.269Z,3.10
2023-08-29T21:03:24.479Z,3.30
2023-08-29T21:06:12.970Z,3.53
2023-08-29T21:09:03.547Z,3.78
2023-08-29T21:11:52.092Z,3.72
2023-08-29T21:14:40.065Z,3.83
2023-08-29T21:17:28.134Z,4.03
2023-08-29T21:20:16.216Z,3.60
2023-08-29T21:23:05.130Z,4.38
2023-08-29T21:25:54.196Z,4.00
2023-08-29T21:28:44.878Z,4.00
2023-08-29T21:31:33.009Z,4.03
2023-08-29T21:34:23.324Z,3.55
2023-08-29T21:37:13.147Z,4.13
2023-08-29T21:40:01.220Z,3.95
2023-08-29T21:42:49.229Z,4.65
2023-08-29T21:45:38.590Z,3.97
2023-08-29T21:48:30.630Z,3.85
2023-08-29T21:51:21.875Z,4.03
2023-08-29T21:54:09.903Z,4.00
2023-08-29T21:56:57.832Z,4.50
2023-08-29T21:59:45.769Z,4.35
2023-08-29T22:02:33.843Z,4.30
2023-08-29T22:05:22.692Z,4.00
2023-08-29T22:08:11.186Z,4.40
2023-08-29T22:11:00.409Z,3.85
2023-08-29T22:13:48.381Z,4.13
2023-08-29T22:16:36.414Z,4.45
2023-08-29T22:19:25.445Z,4.05
2023-08-29T22:22:13.452Z,4.45
2023-08-29T22:25:01.437Z,4.25
2023-08-29T22:27:49.550Z,3.85
2023-08-29T22:30:40.138Z,3.75
2023-08-29T22:33:30.330Z,4.22
2023-08-29T22:36:19.946Z,4.60
2023-08-29T22:39:08.908Z,4.70
2023-08-29T22:41:56.881Z,4.38
2023-08-29T22:44:45.277Z,4.18
2023-08-29T22:47:33.252Z,4.82
2023-08-29T22:50:21.335Z,4.00
2023-08-29T22:53:09.308Z,4.32
2023-08-29T22:55:59.031Z,4.70
2023-08-29T22:58:47.038Z,4.57
2023-08-29T23:01:35.783Z,5.00
2023-08-29T23:04:23.921Z,4.30
2023-08-29T23:07:12.408Z,4.60
2023-08-29T23:10:00.543Z,4.97
2023-08-29T23:12:48.558Z,4.63
2023-08-29T23:15:36.523Z,4.28
2023-08-29T23:18:24.571Z,3.95
2023-08-29T23:21:12.784Z,4.22
2023-08-29T23:24:00.756Z,4.15
2023-08-29T23:26:49.310Z,4.80
2023-08-29T23:29:37.622Z,4.07
2023-08-29T23:32:25.643Z,5.47
2023-08-29T23:35:13.666Z,5.03
2023-08-29T23:38:01.613Z,4.85
2023-08-29T23:40:49.671Z,4.95
2023-08-29T23:43:38.071Z,4.68
2023-08-29T23:46:26.083Z,4.75
2023-08-29T23:49:14.107Z,5.13
2023-08-29T23:52:02.061Z,4.85
2023-08-29T23:54:50.133Z,4.68
2023-08-29T23:57:38.113Z,5.05
